Time;durP1;ratioP1;P1;durP2;ratioP2;P2;SDS_P1;SDS_P2;PMS_P1;PMS_P2;Temp;Humidity;BMP_temperature;BMP_pressure;BME280_temperature;BME280_humidity;BME280_pressure;Samples;Min_cycle;Max_cycle;Signal;HPM_P1;HPM_P2
2024/02/04 00:01:24;;;;;;;0.77;0.70;;;10.00;99.90;;;;;;4959204;28;20198;-90
2024/02/04 00:03:50;;;;;;;1.00;0.63;;;10.50;99.90;;;;;;4954607;28;20583;-88
2024/02/04 00:06:15;;;;;;;0.80;0.60;;;10.30;99.90;;;;;;4950597;28;20740;-89
2024/02/04 00:08:41;;;;;;;0.87;0.60;;;10.30;99.90;;;;;;4953644;28;20603;-89
2024/02/04 00:11:08;;;;;;;0.77;0.60;;;10.50;99.90;;;;;;4950356;28;20211;-88
2024/02/04 00:13:34;;;;;;;1.13;0.70;;;10.30;99.90;;;;;;4949132;28;20185;-89
2024/02/04 00:16:00;;;;;;;0.70;0.63;;;10.00;99.90;;;;;;4953911;28;20250;-90
2024/02/04 00:18:25;;;;;;;1.00;0.60;;;10.30;99.90;;;;;;4951455;28;20279;-90
2024/02/04 00:20:51;;;;;;;0.70;0.60;;;9.90;99.90;;;;;;4967847;28;20178;-88
2024/02/04 00:23:16;;;;;;;0.80;0.60;;;9.60;99.90;;;;;;4968017;28;20197;-87
2024/02/04 00:25:42;;;;;;;0.80;0.53;;;10.30;99.90;;;;;;4950662;28;20218;-88
2024/02/04 00:28:11;;;;;;;0.63;0.60;;;9.50;99.90;;;;;;4954898;28;20197;-88
2024/02/04 00:30:39;;;;;;;0.70;0.50;;;10.00;99.90;;;;;;4966121;28;20207;-87
2024/02/04 00:33:05;;;;;;;0.60;0.50;;;9.80;99.90;;;;;;4954141;29;20183;-88
2024/02/04 00:35:31;;;;;;;0.60;0.50;;;9.30;99.90;;;;;;4955220;28;20664;-88
2024/02/04 00:37:57;;;;;;;1.03;0.70;;;9.50;99.90;;;;;;4952258;28;20186;-88
2024/02/04 00:40:22;;;;;;;0.90;0.70;;;9.80;99.90;;;;;;4951881;28;20659;-89
2024/02/04 00:42:48;;;;;;;0.90;0.60;;;9.50;99.90;;;;;;4950936;28;20281;-88
2024/02/04 00:45:13;;;;;;;0.60;0.60;;;9.50;99.90;;;;;;4952585;28;20237;-88
2024/02/04 00:47:39;;;;;;;0.80;0.70;;;9.30;99.90;;;;;;4951147;28;20262;-88
2024/02/04 00:50:05;;;;;;;0.73;0.60;;;9.40;99.90;;;;;;4958487;28;20264;-89
2024/02/04 00:52:30;;;;;;;0.70;0.60;;;9.60;99.90;;;;;;4958751;28;20233;-89
2024/02/04 00:54:56;;;;;;;0.80;0.70;;;9.40;99.90;;;;;;4954797;28;20597;-89
2024/02/04 00:57:21;;;;;;;1.27;0.80;;;9.00;99.90;;;;;;4955779;28;20746;-88
2024/02/04 00:59:47;;;;;;;0.80;0.70;;;9.80;99.90;;;;;;4951789;28;20202;-88
2024/02/04 01:02:13;;;;;;;0.70;0.60;;;9.50;99.90;;;;;;4968899;28;20237;-89
2024/02/04 01:04:38;;;;;;;0.97;0.87;;;9.60;99.90;;;;;;4948264;29;20214;-88
2024/02/04 01:07:04;;;;;;;1.20;0.70;;;9.50;99.90;;;;;;4957631;28;20925;-88
2024/02/04 01:09:29;;;;;;;1.03;0.93;;;9.40;99.90;;;;;;4951821;29;20205;-90
2024/02/04 01:11:55;;;;;;;1.20;1.10;;;8.90;99.90;;;;;;4952135;29;20233;-88
2024/02/04 01:14:21;;;;;;;1.13;0.70;;;9.40;99.90;;;;;;4951797;28;20202;-90
2024/02/04 01:16:46;;;;;;;1.30;0.90;;;9.70;99.90;;;;;;4951895;29;20183;-88
2024/02/04 01:19:12;;;;;;;0.70;0.53;;;9.20;99.90;;;;;;4965205;28;20603;-89
2024/02/04 01:21:37;;;;;;;0.70;0.60;;;9.30;99.90;;;;;;4953712;28;20189;-88
2024/02/04 01:24:03;;;;;;;0.80;0.60;;;8.90;99.90;;;;;;4969656;28;20186;-89
2024/02/04 01:26:28;;;;;;;0.80;0.67;;;9.40;99.90;;;;;;4955293;28;20211;-89
2024/02/04 01:28:54;;;;;;;0.90;0.60;;;9.40;99.90;;;;;;4961772;28;20247;-89
2024/02/04 01:31:19;;;;;;;0.60;0.50;;;9.70;99.90;;;;;;4953392;28;21403;-89
2024/02/04 01:33:45;;;;;;;1.37;0.60;;;9.20;99.90;;;;;;4970002;28;20697;-88
2024/02/04 01:36:10;;;;;;;0.70;0.50;;;9.50;99.90;;;;;;4950117;28;20379;-89
2024/02/04 01:38:36;;;;;;;0.80;0.70;;;9.10;99.90;;;;;;4950687;28;20188;-89
2024/02/04 01:41:01;;;;;;;0.80;0.60;;;8.60;99.90;;;;;;4969112;28;20191;-90
2024/02/04 01:43:27;;;;;;;0.90;0.50;;;8.80;99.90;;;;;;4969303;28;20218;-89
2024/02/04 01:45:53;;;;;;;0.70;0.70;;;8.70;99.90;;;;;;4953272;28;20294;-88
2024/02/04 01:48:20;;;;;;;0.70;0.70;;;9.00;99.90;;;;;;4953859;28;20253;-88
2024/02/04 01:50:48;;;;;;;0.70;0.60;;;8.10;99.90;;;;;;4951547;28;21028;-88
2024/02/04 01:53:15;;;;;;;0.80;0.60;;;9.00;99.90;;;;;;4952573;29;20533;-88
2024/02/04 01:55:40;;;;;;;0.98;0.70;;;9.20;99.90;;;;;;4948555;28;20291;-88
2024/02/04 01:58:06;;;;;;;0.93;0.63;;;9.20;99.90;;;;;;4951343;28;20293;-88
2024/02/04 02:00:32;;;;;;;0.80;0.60;;;9.10;99.90;;;;;;4953885;28;20197;-88
2024/02/04 02:02:59;;;;;;;0.70;0.63;;;9.20;99.90;;;;;;4953414;28;20427;-88
2024/02/04 02:05:26;;;;;;;0.70;0.50;;;9.20;99.90;;;;;;4969316;28;20522;-88
2024/02/04 02:07:51;;;;;;;1.00;0.60;;;8.80;99.90;;;;;;4969650;28;20197;-88
2024/02/04 02:10:19;;;;;;;0.70;0.70;;;9.10;99.90;;;;;;4956949;28;20211;-88
2024/02/04 02:12:56;;;;;;;0.82;0.68;;;9.50;99.90;;;;;;4950578;28;20182;-88
2024/02/04 02:15:30;;;;;;;0.70;0.70;;;9.60;99.90;;;;;;4951361;28;20213;-88
2024/02/04 02:18:04;;;;;;;0.95;0.70;;;9.10;99.90;;;;;;4954159;28;20195;-88
2024/02/04 02:20:55;;;;;;;0.93;0.80;;;9.40;99.90;;;;;;4956494;28;20632;-88
2024/02/04 02:23:30;;;;;;;0.63;0.60;;;8.80;99.90;;;;;;4953986;28;20220;-90
2024/02/04 02:25:58;;;;;;;0.65;0.52;;;8.90;99.90;;;;;;4952345;28;20206;-89
2024/02/04 02:28:23;;;;;;;1.27;0.70;;;9.30;99.90;;;;;;4953668;28;20217;-89
2024/02/04 02:30:49;;;;;;;1.03;0.93;;;9.00;99.90;;;;;;4970543;28;20259;-89
2024/02/04 02:33:14;;;;;;;0.80;0.73;;;9.10;99.90;;;;;;4953700;28;20189;-90
2024/02/04 02:35:40;;;;;;;0.90;0.80;;;9.40;99.90;;;;;;4952629;28;20302;-89
2024/02/04 02:38:24;;;;;;;0.90;0.70;;;9.70;99.90;;;;;;4951815;28;20182;-89
2024/02/04 02:40:58;;;;;;;0.68;0.57;;;9.50;99.90;;;;;;4970598;28;20448;-90
2024/02/04 02:43:24;;;;;;;0.65;0.57;;;9.30;99.90;;;;;;4966973;28;20263;-89
2024/02/04 02:45:50;;;;;;;0.80;0.70;;;10.00;99.90;;;;;;4952030;28;20225;-90
2024/02/04 02:48:16;;;;;;;0.80;0.60;;;9.50;99.90;;;;;;4952644;28;20226;-88
2024/02/04 02:50:42;;;;;;;0.83;0.77;;;9.00;99.90;;;;;;4967908;28;20544;-90
2024/02/04 02:53:07;;;;;;;1.10;0.60;;;9.70;99.90;;;;;;4952887;28;20442;-90
2024/02/04 02:55:33;;;;;;;0.93;0.80;;;9.20;99.90;;;;;;4968812;28;20280;-89
2024/02/04 02:57:58;;;;;;;0.70;0.50;;;9.70;99.90;;;;;;4950719;28;20643;-89
2024/02/04 03:00:24;;;;;;;0.63;0.50;;;9.50;99.90;;;;;;4968190;28;20221;-89
2024/02/04 03:02:49;;;;;;;1.60;1.03;;;9.80;99.90;;;;;;4971467;28;20670;-88
2024/02/04 03:05:18;;;;;;;0.70;0.50;;;9.60;99.90;;;;;;4955903;28;20213;-89
2024/02/04 03:07:43;;;;;;;0.60;0.60;;;9.40;99.90;;;;;;4954952;28;20195;-89
2024/02/04 03:10:09;;;;;;;0.60;0.50;;;9.50;99.90;;;;;;4954630;28;20333;-88
2024/02/04 03:12:35;;;;;;;0.60;0.50;;;9.80;99.90;;;;;;4971178;28;20215;-90
2024/02/04 03:15:01;;;;;;;0.67;0.50;;;9.60;99.90;;;;;;4952565;28;20470;-89
2024/02/04 03:17:29;;;;;;;0.60;0.53;;;9.70;99.90;;;;;;4955160;28;20197;-89
2024/02/04 03:19:55;;;;;;;0.60;0.52;;;9.10;99.90;;;;;;4952050;28;20191;-88
2024/02/04 03:22:24;;;;;;;0.70;0.50;;;9.90;99.90;;;;;;4949830;28;20193;-88
2024/02/04 03:24:50;;;;;;;1.13;0.80;;;9.50;99.90;;;;;;4953322;28;20301;-88
2024/02/04 03:27:19;;;;;;;1.50;0.93;;;9.60;99.90;;;;;;4955451;28;20182;-88
2024/02/04 03:29:44;;;;;;;0.80;0.50;;;9.10;99.90;;;;;;4982675;28;20444;-89
2024/02/04 03:32:13;;;;;;;0.77;0.60;;;9.20;99.90;;;;;;4956250;28;20680;-89
2024/02/04 03:34:41;;;;;;;0.68;0.60;;;9.90;99.90;;;;;;4978153;28;20309;-88
2024/02/04 03:37:06;;;;;;;0.68;0.60;;;9.50;99.90;;;;;;4969714;28;20189;-89
2024/02/04 03:39:32;;;;;;;0.70;0.60;;;9.20;99.90;;;;;;4958574;28;20656;-88
2024/02/04 03:41:57;;;;;;;0.80;0.80;;;9.50;99.90;;;;;;4952912;28;20201;-89
2024/02/04 03:44:23;;;;;;;0.80;0.70;;;9.60;99.90;;;;;;4951551;28;20430;-89
2024/02/04 03:46:50;;;;;;;0.70;0.67;;;10.10;99.90;;;;;;4954353;28;20291;-89
2024/02/04 03:49:15;;;;;;;7.00;0.80;;;9.50;99.90;;;;;;4952071;28;20635;-89
2024/02/04 03:51:41;;;;;;;1.00;0.70;;;9.60;99.90;;;;;;4964112;28;20203;-90
2024/02/04 03:54:06;;;;;;;0.70;0.60;;;9.70;99.90;;;;;;4956924;28;20454;-90
2024/02/04 03:56:32;;;;;;;0.60;0.50;;;9.60;99.90;;;;;;4954558;28;20216;-88
2024/02/04 03:58:57;;;;;;;0.97;0.50;;;10.10;99.90;;;;;;4951836;28;20320;-88
2024/02/04 04:01:23;;;;;;;0.80;0.60;;;9.70;99.90;;;;;;4953319;28;20190;-88
2024/02/04 04:03:49;;;;;;;0.60;0.60;;;9.00;99.90;;;;;;4953493;28;20214;-89
2024/02/04 04:06:15;;;;;;;0.80;0.60;;;9.30;99.90;;;;;;4952172;28;20271;-88
2024/02/04 04:08:40;;;;;;;0.80;0.63;;;9.20;99.90;;;;;;4968340;28;20234;-89
2024/02/04 04:11:08;;;;;;;0.70;0.50;;;9.60;99.90;;;;;;4950764;28;20246;-89
2024/02/04 04:13:34;;;;;;;0.90;0.75;;;9.20;99.90;;;;;;4950703;28;20291;-90
2024/02/04 04:16:00;;;;;;;0.60;0.50;;;10.00;99.90;;;;;;4952513;28;20202;-88
2024/02/04 04:18:26;;;;;;;0.68;0.55;;;10.10;99.90;;;;;;4968102;28;20216;-90
2024/02/04 04:20:51;;;;;;;0.60;0.50;;;10.10;99.90;;;;;;4954164;28;20186;-89
2024/02/04 04:23:17;;;;;;;0.80;0.60;;;9.80;99.90;;;;;;4955012;28;20186;-89
2024/02/04 04:25:42;;;;;;;0.80;0.70;;;9.30;99.90;;;;;;4946977;28;20266;-90
2024/02/04 04:28:08;;;;;;;0.80;0.50;;;9.50;99.90;;;;;;4952073;28;20218;-90
2024/02/04 04:30:33;;;;;;;1.00;0.53;;;9.60;99.90;;;;;;4953358;28;20210;-90
2024/02/04 04:32:59;;;;;;;0.60;0.50;;;9.70;99.90;;;;;;4949722;28;20212;-89
2024/02/04 04:35:25;;;;;;;0.70;0.50;;;10.00;99.90;;;;;;4972106;28;20245;-89
2024/02/04 04:37:50;;;;;;;0.70;0.50;;;9.70;99.90;;;;;;4967651;28;20239;-89
2024/02/04 04:40:16;;;;;;;0.60;0.57;;;10.10;99.90;;;;;;4954503;28;20662;-89
2024/02/04 04:42:41;;;;;;;0.60;0.40;;;9.90;99.90;;;;;;4951990;28;20542;-90
2024/02/04 04:45:10;;;;;;;0.70;0.60;;;9.20;99.90;;;;;;4968361;28;20219;-88
2024/02/04 04:47:36;;;;;;;1.20;0.60;;;9.80;99.90;;;;;;4955458;28;20194;-88
2024/02/04 04:50:02;;;;;;;1.87;1.40;;;9.90;99.90;;;;;;4953947;28;20312;-88
2024/02/04 04:52:28;;;;;;;0.70;0.60;;;9.80;99.90;;;;;;4954362;28;20469;-90
2024/02/04 04:54:54;;;;;;;0.60;0.50;;;10.20;99.90;;;;;;4969974;28;20203;-89
2024/02/04 04:57:20;;;;;;;0.70;0.60;;;10.20;99.90;;;;;;4957393;28;20187;-90
2024/02/04 04:59:45;;;;;;;0.83;0.50;;;9.40;99.90;;;;;;4951592;28;20699;-90
2024/02/04 05:02:11;;;;;;;0.80;0.50;;;10.20;99.90;;;;;;4957447;28;20196;-88
2024/02/04 05:04:36;;;;;;;0.80;0.50;;;9.70;99.90;;;;;;4956561;28;20218;-89
2024/02/04 05:07:02;;;;;;;0.80;0.60;;;10.10;99.90;;;;;;4951298;28;20280;-89
2024/02/04 05:09:27;;;;;;;0.70;0.50;;;9.70;99.90;;;;;;4959435;28;20450;-88
2024/02/04 05:11:53;;;;;;;1.00;0.60;;;9.30;99.90;;;;;;4951529;28;20244;-88
2024/02/04 05:14:21;;;;;;;0.70;0.57;;;9.60;99.90;;;;;;4957115;28;20187;-93
2024/02/04 05:16:48;;;;;;;0.70;0.60;;;10.00;99.90;;;;;;4964803;28;20213;-87
2024/02/04 05:19:14;;;;;;;0.60;0.50;;;9.90;99.90;;;;;;4939390;29;20234;-87
2024/02/04 05:21:42;;;;;;;0.70;0.60;;;9.90;99.90;;;;;;4955869;28;20187;-87
2024/02/04 05:24:08;;;;;;;0.60;0.50;;;9.70;99.90;;;;;;4960797;28;20196;-89
2024/02/04 05:26:33;;;;;;;0.63;0.50;;;9.70;99.90;;;;;;4957624;28;20211;-87
2024/02/04 05:28:59;;;;;;;0.70;0.50;;;9.20;99.90;;;;;;4956235;28;20190;-87
2024/02/04 05:31:24;;;;;;;0.60;0.60;;;10.10;99.90;;;;;;4960912;28;20226;-87
2024/02/04 05:33:51;;;;;;;0.60;0.40;;;10.20;99.90;;;;;;4953553;29;20217;-85
2024/02/04 05:36:17;;;;;;;1.08;0.65;;;9.50;99.90;;;;;;4951582;29;20233;-86
2024/02/04 05:38:46;;;;;;;0.70;0.50;;;9.60;99.90;;;;;;4958715;28;20324;-86
2024/02/04 05:41:12;;;;;;;0.60;0.43;;;9.60;99.90;;;;;;4957355;28;20257;-87
2024/02/04 05:43:39;;;;;;;1.10;0.60;;;9.90;99.90;;;;;;4953481;28;20223;-87
2024/02/04 05:46:04;;;;;;;1.13;0.68;;;9.50;99.90;;;;;;4953830;28;20209;-85
2024/02/04 05:48:30;;;;;;;0.60;0.50;;;9.60;99.90;;;;;;4954987;28;20566;-86
2024/02/04 05:54:20;;;;;;;0.60;0.50;;;9.50;99.90;;;;;;5038831;23;20250;-88
2024/02/04 06:00:42;;;;;;;0.60;0.50;;;9.50;99.90;;;;;;4894470;29;20208;-87
2024/02/04 06:03:25;;;;;;;0.98;0.60;;;9.40;99.90;;;;;;4907802;29;20235;-87
2024/02/04 06:05:56;;;;;;;0.60;0.50;;;9.60;99.90;;;;;;4901646;29;20215;-86
2024/02/04 06:08:22;;;;;;;0.60;0.50;;;;;;;;;;4916102;29;20207;-86
2024/02/04 06:10:47;;;;;;;0.70;0.45;;;9.40;99.90;;;;;;4907627;29;20213;-86
2024/02/04 06:13:14;;;;;;;0.60;0.40;;;9.60;99.90;;;;;;4902408;29;20612;-86
2024/02/04 06:15:40;;;;;;;0.60;0.50;;;;;;;;;;4896580;29;20211;-87
2024/02/04 06:18:05;;;;;;;0.60;0.50;;;9.30;99.90;;;;;;4898043;29;20185;-87
2024/02/04 06:20:31;;;;;;;0.80;0.60;;;11.60;99.90;;;;;;4897512;29;20555;-87
2024/02/04 06:23:00;;;;;;;0.60;0.50;;;;;;;;;;4904060;29;20187;-87
2024/02/04 06:25:31;;;;;;;0.60;0.55;;;9.40;99.90;;;;;;4893666;29;20700;-86
2024/02/04 06:27:57;;;;;;;0.60;0.50;;;;;;;;;;4899884;29;20201;-86
2024/02/04 06:30:23;;;;;;;0.60;0.50;;;9.60;99.90;;;;;;4898667;29;21571;-85
2024/02/04 06:32:49;;;;;;;0.60;0.50;;;12.60;99.90;;;;;;4900979;29;20791;-85
2024/02/04 06:35:15;;;;;;;1.77;0.82;;;9.90;99.90;;;;;;4897823;29;20213;-87
2024/02/04 06:37:42;;;;;;;0.63;0.50;;;9.50;99.90;;;;;;4899661;29;20595;-86
2024/02/04 06:40:09;;;;;;;0.60;0.50;;;9.70;99.90;;;;;;4904498;29;20197;-86
2024/02/04 06:42:35;;;;;;;0.60;0.50;;;9.20;99.90;;;;;;4898349;29;20193;-86
2024/02/04 06:45:01;;;;;;;0.60;0.50;;;9.40;99.90;;;;;;4903842;29;20551;-85
2024/02/04 06:47:26;;;;;;;0.60;0.50;;;9.80;99.90;;;;;;4899387;29;20528;-85
2024/02/04 06:49:52;;;;;;;0.67;0.60;;;9.50;99.90;;;;;;4884973;29;20204;-86
2024/02/04 06:52:18;;;;;;;0.60;0.50;;;9.80;99.90;;;;;;4898075;29;20617;-85
2024/02/04 06:54:44;;;;;;;0.60;0.50;;;9.00;99.90;;;;;;4896665;29;20259;-87
2024/02/04 06:57:09;;;;;;;0.70;0.60;;;8.90;99.90;;;;;;4897901;29;20193;-85
2024/02/04 06:59:35;;;;;;;0.60;0.50;;;8.90;99.90;;;;;;4901950;29;20192;-85
2024/02/04 07:02:00;;;;;;;0.70;0.50;;;9.00;99.90;;;;;;4897628;29;20231;-84
2024/02/04 07:04:26;;;;;;;0.60;0.40;;;9.50;99.90;;;;;;4894307;29;20197;-85
2024/02/04 07:06:52;;;;;;;0.80;0.50;;;;;;;;;;4902430;29;20192;-85
2024/02/04 07:09:18;;;;;;;0.60;0.53;;;9.60;99.90;;;;;;4896899;29;20200;-86
2024/02/04 07:11:43;;;;;;;0.70;0.50;;;9.30;99.90;;;;;;4903395;29;20902;-86
2024/02/04 07:14:09;;;;;;;0.60;0.60;;;9.80;99.90;;;;;;4896152;29;20460;-85
2024/02/04 07:16:34;;;;;;;0.60;0.50;;;9.60;99.90;;;;;;4898734;29;20203;-85
2024/02/04 07:19:00;;;;;;;1.07;0.60;;;9.30;99.90;;;;;;4897721;29;20184;-85
2024/02/04 07:21:25;;;;;;;1.23;0.50;;;9.20;99.90;;;;;;4909957;29;20272;-86
2024/02/04 07:23:51;;;;;;;0.90;0.50;;;9.70;99.90;;;;;;4895519;29;20233;-85
2024/02/04 07:26:17;;;;;;;0.50;0.40;;;;;;;;;;5019924;23;20228;-85
2024/02/04 07:28:43;;;;;;;0.70;0.60;;;;;;;;;;4936520;29;20194;-84
2024/02/04 07:31:08;;;;;;;0.60;0.50;;;9.00;99.90;;;;;;4949292;28;20458;-86
2024/02/04 07:33:34;;;;;;;0.70;0.60;;;10.40;99.90;;;;;;4934893;29;20552;-83
2024/02/04 07:36:00;;;;;;;0.90;0.50;;;;;;;;;;4923937;28;20213;-85
2024/02/04 07:38:43;;;;;;;0.77;0.57;;;9.20;99.90;;;;;;4916731;29;20184;-83
2024/02/04 07:41:09;;;;;;;1.30;0.50;;;;;;;;;;4915937;29;20445;-88
2024/02/04 08:59:20;;;;;;;0.80;0.60;;;;;;;;;;5485214;23;20295;-91
2024/02/04 09:02:05;;;;;;;;;;;;;;;;;;;;;
2024/02/04 09:04:31;;;;;;;1.00;0.80;;;;;;;;;;4933899;29;20215;-86
2024/02/04 09:06:56;;;;;;;0.80;0.70;;;11.20;99.90;;;;;;4939006;29;20193;-87
2024/02/04 09:09:22;;;;;;;0.67;0.60;;;11.40;99.90;;;;;;4935304;29;20251;-86
2024/02/04 09:11:48;;;;;;;0.80;0.70;;;;;;;;;;4928940;29;20585;-88
2024/02/04 09:14:13;;;;;;;0.77;0.60;;;11.20;99.90;;;;;;4934264;29;20568;-89
2024/02/04 09:16:39;;;;;;;2.80;1.00;;;;;;;;;;4935800;29;20894;-89
2024/02/04 09:19:05;;;;;;;1.20;0.60;;;11.10;99.90;;;;;;4934614;29;20196;-88
2024/02/04 09:21:30;;;;;;;0.80;0.60;;;11.50;99.90;;;;;;4935003;29;20456;-88
2024/02/04 09:23:59;;;;;;;0.90;0.50;;;11.90;99.90;;;;;;4947228;28;20192;-90
2024/02/04 09:26:25;;;;;;;0.77;0.60;;;11.50;99.90;;;;;;5102936;23;20244;-88
2024/02/04 09:28:51;;;;;;;0.70;0.60;;;;;;;;;;4948761;28;20673;-91
2024/02/04 09:31:16;;;;;;;0.67;0.57;;;11.40;99.90;;;;;;4975795;28;20337;-90
2024/02/04 09:33:43;;;;;;;2.30;0.80;;;;;;;;;;4961680;28;20457;-89
2024/02/04 09:36:09;;;;;;;0.70;0.60;;;11.50;99.90;;;;;;4972769;28;20469;-90
2024/02/04 09:38:35;;;;;;;0.80;0.60;;;;;;;;;;4961375;28;20188;-87
2024/02/04 09:41:03;;;;;;;0.60;0.50;;;11.90;99.90;;;;;;4975067;28;20195;-88
2024/02/04 09:43:35;;;;;;;0.70;0.50;;;10.90;99.90;;;;;;4974728;28;20470;-88
2024/02/04 09:46:07;;;;;;;0.80;0.70;;;12.10;99.90;;;;;;4989165;28;20280;-86
2024/02/04 09:48:33;;;;;;;0.90;0.50;;;12.60;99.90;;;;;;4976978;28;20179;-89
2024/02/04 09:50:59;;;;;;;1.25;0.60;;;12.50;99.90;;;;;;4979111;28;20217;-90
2024/02/04 09:53:33;;;;;;;1.00;0.60;;;14.30;99.90;;;;;;4980725;28;20238;-90
2024/02/04 09:55:59;;;;;;;0.60;0.50;;;14.40;99.90;;;;;;4978563;28;20557;-83
2024/02/04 09:58:24;;;;;;;1.15;0.68;;;12.80;99.60;;;;;;4980329;28;20180;-82
2024/02/04 10:00:51;;;;;;;0.70;0.50;;;13.10;99.90;;;;;;4992433;28;20192;-83
2024/02/04 10:03:16;;;;;;;0.77;0.60;;;13.00;99.60;;;;;;4981587;28;20183;-83
2024/02/04 10:05:42;;;;;;;0.80;0.80;;;12.80;99.60;;;;;;4981695;28;20210;-83
2024/02/04 10:08:07;;;;;;;0.80;0.50;;;13.20;99.50;;;;;;4983964;28;20211;-83
2024/02/04 10:10:33;;;;;;;0.73;0.60;;;12.90;99.10;;;;;;4974712;28;20211;-83
2024/02/04 10:12:59;;;;;;;0.70;0.50;;;13.40;99.30;;;;;;4981278;28;20711;-84
2024/02/04 10:15:30;;;;;;;1.07;0.50;;;12.40;98.90;;;;;;4980490;28;20275;-84
2024/02/04 10:17:56;;;;;;;0.60;0.50;;;12.50;99.00;;;;;;4979635;28;20195;-83
2024/02/04 10:20:22;;;;;;;0.70;0.60;;;12.80;99.00;;;;;;4979024;28;20191;-82
2024/02/04 10:22:49;;;;;;;0.77;0.60;;;13.90;99.10;;;;;;4983393;28;20184;-81
2024/02/04 10:25:16;;;;;;;0.60;0.40;;;13.70;98.00;;;;;;4979170;28;20261;-84
2024/02/04 10:27:42;;;;;;;2.55;1.98;;;14.40;97.20;;;;;;4976780;28;20192;-82
2024/02/04 10:30:08;;;;;;;0.70;0.57;;;14.90;96.70;;;;;;4978496;28;20188;-83
2024/02/04 10:32:34;;;;;;;0.60;0.50;;;15.00;95.60;;;;;;4976315;28;20454;-83
2024/02/04 10:35:00;;;;;;;0.80;0.50;;;15.10;95.00;;;;;;4979169;28;20457;-82
2024/02/04 10:37:26;;;;;;;0.70;0.50;;;15.20;94.80;;;;;;4982190;28;20255;-85
2024/02/04 10:39:52;;;;;;;0.70;0.50;;;15.30;94.30;;;;;;4979245;28;20735;-83
2024/02/04 10:42:21;;;;;;;0.60;0.50;;;15.70;94.20;;;;;;4987044;28;20715;-82
2024/02/04 10:44:51;;;;;;;0.80;0.60;;;15.00;94.10;;;;;;4983972;28;20311;-83
2024/02/04 10:47:21;;;;;;;0.70;0.50;;;15.40;94.80;;;;;;4978953;28;20200;-84
2024/02/04 10:49:53;;;;;;;1.00;0.80;;;15.20;94.80;;;;;;4978737;28;20191;-84
2024/02/04 10:52:18;;;;;;;0.70;0.55;;;15.40;95.60;;;;;;4982449;28;20195;-84
2024/02/04 10:54:45;;;;;;;0.80;0.77;;;14.90;95.40;;;;;;4989608;28;20199;-84
2024/02/04 10:57:13;;;;;;;0.70;0.70;;;14.70;95.30;;;;;;4982841;28;20187;-83
2024/02/04 10:59:39;;;;;;;0.60;0.50;;;15.10;95.50;;;;;;4980968;28;20686;-83
2024/02/04 11:02:08;;;;;;;1.40;0.63;;;14.90;95.20;;;;;;4985318;28;20214;-83
2024/02/04 11:04:35;;;;;;;0.80;0.65;;;14.30;95.50;;;;;;4983250;28;20993;-83
2024/02/04 11:07:03;;;;;;;0.70;0.50;;;14.50;95.90;;;;;;4979142;28;20187;-84
2024/02/04 11:09:28;;;;;;;1.52;0.60;;;14.00;95.90;;;;;;4979415;28;20353;-84
2024/02/04 11:11:58;;;;;;;0.70;0.50;;;14.80;96.50;;;;;;4975737;28;20231;-84
2024/02/04 11:14:25;;;;;;;1.05;0.55;;;14.60;96.30;;;;;;4978608;28;20191;-83
2024/02/04 11:17:15;;;;;;;2.08;0.50;;;15.40;95.80;;;;;;4994327;28;20239;-84
2024/02/04 11:20:07;;;;;;;0.80;0.60;;;16.00;94.30;;;;;;4978252;28;20195;-82
2024/02/04 11:23:03;;;;;;;1.20;0.70;;;17.70;92.10;;;;;;4983777;28;20179;-82
2024/02/04 11:25:54;;;;;;;0.70;0.60;;;18.00;90.30;;;;;;4982122;28;20226;-83
2024/02/04 11:28:21;;;;;;;0.80;0.57;;;17.90;89.20;;;;;;4982259;28;20244;-83
2024/02/04 11:30:47;;;;;;;0.75;0.60;;;17.90;88.80;;;;;;4982311;28;20207;-83
2024/02/04 11:33:18;;;;;;;0.80;0.60;;;17.20;90.00;;;;;;4975410;28;20179;-83
2024/02/04 11:35:44;;;;;;;0.70;0.60;;;17.50;90.70;;;;;;4977917;28;20199;-84
2024/02/04 11:38:11;;;;;;;1.63;0.70;;;17.70;91.20;;;;;;4976656;28;20184;-85
2024/02/04 11:40:37;;;;;;;0.75;0.57;;;18.00;91.00;;;;;;4980448;28;20244;-84
2024/02/04 11:43:14;;;;;;;1.08;0.40;;;18.10;90.10;;;;;;4977624;28;20179;-84
2024/02/04 11:45:41;;;;;;;1.45;0.88;;;18.70;89.50;;;;;;4977083;28;20705;-85
2024/02/04 11:48:08;;;;;;;1.70;0.63;;;17.50;88.70;;;;;;4975288;28;20184;-83
2024/02/04 11:50:35;;;;;;;0.90;0.70;;;17.70;90.10;;;;;;4981257;28;20215;-84
2024/02/04 11:53:09;;;;;;;0.60;0.40;;;17.10;90.30;;;;;;4981148;28;20183;-86
2024/02/04 11:55:36;;;;;;;0.80;0.60;;;16.60;90.40;;;;;;4976688;28;20199;-84
2024/02/04 11:58:03;;;;;;;2.33;0.60;;;16.90;91.10;;;;;;4979446;28;20184;-84
2024/02/04 12:00:37;;;;;;;0.70;0.50;;;16.80;91.70;;;;;;4981943;28;22270;-92
2024/02/04 12:03:07;;;;;;;0.70;0.50;;;16.40;92.30;;;;;;4977601;28;20277;-91
2024/02/04 12:05:35;;;;;;;1.05;0.63;;;16.90;93.50;;;;;;4977402;28;20204;-92
2024/02/04 12:23:02;;;;;;;;;;;;;;;;;;;;;
2024/02/04 12:40:37;;;;;;;;;;;;;;;;;;;;;
2024/02/04 14:33:28;;;;;;;0.80;0.70;;;14.20;98.80;;;;;;4979202;28;20413;-89
2024/02/04 14:36:38;;;;;;;1.10;0.95;;;13.50;98.20;;;;;;5333703;23;20235;-88
2024/02/04 14:39:26;;;;;;;1.10;0.80;;;14.10;98.90;;;;;;4875748;29;20183;-88
2024/02/04 14:42:22;;;;;;;0.70;0.65;;;14.00;98.80;;;;;;4885608;29;20191;-90
2024/02/04 14:44:51;;;;;;;0.90;0.70;;;13.30;98.70;;;;;;4871799;29;20239;-92
2024/02/04 14:49:52;;;;;;;1.10;0.90;;;12.30;98.80;;;;;;5016693;23;20242;-91
2024/02/04 14:52:19;;;;;;;1.17;0.80;;;13.80;99.90;;;;;;4995704;28;20444;-92
2024/02/04 14:55:03;;;;;;;0.85;0.60;;;14.90;99.90;;;;;;4990736;28;20616;-93
2024/02/04 14:57:28;;;;;;;2.25;0.70;;;13.00;99.90;;;;;;4979968;28;20176;-92
2024/02/04 14:59:54;;;;;;;1.10;0.60;;;12.30;99.90;;;;;;4992211;28;20193;-89
2024/02/04 15:02:20;;;;;;;1.03;0.80;;;12.50;99.90;;;;;;4973680;28;20184;-92
2024/02/04 15:04:46;;;;;;;1.17;0.77;;;;;;;;;;4978234;28;20589;-92
2024/02/04 15:07:12;;;;;;;1.42;0.60;;;12.70;99.70;;;;;;4992286;28;20216;-90
2024/02/04 15:09:38;;;;;;;1.00;0.80;;;;;;;;;;4972850;28;20188;-83
2024/02/04 15:12:04;;;;;;;3.03;1.27;;;12.60;99.90;;;;;;4983391;28;20207;-85
2024/02/04 15:14:30;;;;;;;3.00;0.80;;;12.30;99.90;;;;;;4971291;28;20451;-86
2024/02/04 15:17:01;;;;;;;1.57;0.83;;;12.60;99.90;;;;;;4987019;28;20184;-90
2024/02/04 15:19:27;;;;;;;0.70;0.60;;;12.70;99.90;;;;;;4969588;28;20452;-84
2024/02/04 15:21:53;;;;;;;1.05;0.93;;;12.30;99.90;;;;;;4975294;28;20238;-84
2024/02/04 15:24:19;;;;;;;2.03;1.10;;;12.50;99.90;;;;;;4987521;28;20262;-86
2024/02/04 15:26:48;;;;;;;1.63;1.53;;;12.60;99.90;;;;;;4987536;28;20191;-84
2024/02/04 15:29:16;;;;;;;1.02;0.70;;;12.50;99.90;;;;;;4987778;28;20535;-84
2024/02/04 15:31:43;;;;;;;1.15;0.80;;;12.70;99.90;;;;;;4989553;28;20200;-85
2024/02/04 15:34:09;;;;;;;1.02;0.90;;;12.50;99.90;;;;;;4957537;28;20581;-84
2024/02/04 15:36:36;;;;;;;2.43;1.30;;;12.30;99.90;;;;;;4989174;28;20283;-83
2024/02/04 15:39:02;;;;;;;1.50;0.88;;;11.70;99.90;;;;;;4979272;28;20208;-82
2024/02/04 15:41:27;;;;;;;2.67;1.58;;;12.30;99.90;;;;;;4978294;28;20279;-83
2024/02/04 15:43:53;;;;;;;0.90;0.70;;;12.50;99.90;;;;;;4997428;28;20706;-83
2024/02/04 15:46:20;;;;;;;1.10;0.90;;;11.70;99.90;;;;;;4999982;28;20208;-84
2024/02/04 15:48:49;;;;;;;1.60;1.10;;;12.30;99.90;;;;;;4993118;28;20785;-85
2024/02/04 15:51:25;;;;;;;1.10;0.90;;;12.30;99.90;;;;;;4965643;28;20208;-86
2024/02/04 15:53:52;;;;;;;1.75;1.10;;;12.40;99.90;;;;;;4978604;28;20246;-86
2024/02/04 15:56:23;;;;;;;1.20;1.03;;;12.40;99.90;;;;;;4992909;28;20207;-84
2024/02/04 15:58:58;;;;;;;0.80;0.75;;;12.10;99.90;;;;;;4977409;28;20303;-83
2024/02/04 16:01:29;;;;;;;0.77;0.68;;;12.00;99.90;;;;;;4973735;28;20198;-83
2024/02/04 16:03:55;;;;;;;1.00;1.00;;;12.40;99.90;;;;;;4974176;28;20192;-82
2024/02/04 16:06:21;;;;;;;1.00;0.90;;;11.90;99.90;;;;;;4973993;28;20638;-84
2024/02/04 16:08:49;;;;;;;2.50;1.13;;;11.70;99.90;;;;;;4991767;28;20458;-86
2024/02/04 16:11:18;;;;;;;0.82;0.82;;;11.90;99.90;;;;;;4974153;28;20529;-84
2024/02/04 16:13:47;;;;;;;1.95;0.95;;;11.80;99.90;;;;;;4990699;28;20202;-83
2024/02/04 16:16:21;;;;;;;0.95;0.85;;;11.50;99.90;;;;;;4976442;28;20187;-83
2024/02/04 16:18:49;;;;;;;1.65;0.80;;;12.00;99.90;;;;;;4987485;28;20589;-86
2024/02/04 16:21:17;;;;;;;1.33;0.70;;;11.60;99.90;;;;;;4993684;28;20168;-89
2024/02/04 16:23:43;;;;;;;1.10;0.95;;;;;;;;;;5003436;23;20318;-88
2024/02/04 16:26:10;;;;;;;0.80;0.80;;;11.40;99.90;;;;;;4973307;28;20257;-90
2024/02/04 18:49:05;;;;;;;;;;;;;;;;;;;;;
2024/02/04 18:52:00;;;;;;;1.73;1.33;;;10.40;99.90;;;;;;5016124;28;20213;-89
2024/02/04 18:57:00;;;;;;;1.48;1.38;;;10.10;99.90;;;;;;4996116;23;20240;-89
2024/02/04 18:59:29;;;;;;;1.30;1.20;;;11.10;99.90;;;;;;4988723;28;20181;-89
2024/02/04 19:02:00;;;;;;;1.85;1.75;;;11.40;99.90;;;;;;4990393;28;20278;-89
2024/02/04 19:07:25;;;;;;;2.22;1.90;;;10.70;99.90;;;;;;4961765;28;20201;-89
2024/02/04 19:09:58;;;;;;;1.45;1.35;;;10.30;99.90;;;;;;4971301;28;20694;-89
2024/02/04 19:12:57;;;;;;;1.35;1.25;;;11.80;99.90;;;;;;4986643;28;20213;-89
2024/02/04 19:15:45;;;;;;;;;;;;;;;;;;;;;
2024/02/04 19:18:38;;;;;;;1.40;1.30;;;10.40;99.90;;;;;;4975086;28;20233;-89